sensor_id;sensor_type;location;lat;lon;timestamp;P1;durP1;ratioP1;P2;durP2;ratioP2
35699;SDS011;21818;51.078;12.108;2023-04-24T00:02:13;1.67;;;1.10;;
35699;SDS011;21818;51.078;12.108;2023-04-24T00:04:38;1.55;;;0.80;;
35699;SDS011;21818;51.078;12.108;2023-04-24T00:07:09;1.15;;;0.70;;
35699;SDS011;21818;51.078;12.108;2023-04-24T00:09:35;2.50;;;1.00;;
35699;SDS011;21818;51.078;12.108;2023-04-24T00:12:01;2.35;;;0.80;;
35699;SDS011;21818;51.078;12.108;2023-04-24T00:14:29;2.30;;;0.55;;
35699;SDS011;21818;51.078;12.108;2023-04-24T00:16:55;1.60;;;0.80;;
35699;SDS011;21818;51.078;12.108;2023-04-24T00:19:21;1.88;;;0.70;;
35699;SDS011;21818;51.078;12.108;2023-04-24T00:21:46;2.03;;;0.70;;
35699;SDS011;21818;51.078;12.108;2023-04-24T00:24:14;1.50;;;0.52;;
35699;SDS011;21818;51.078;12.108;2023-04-24T00:26:43;1.98;;;0.57;;
35699;SDS011;21818;51.078;12.108;2023-04-24T00:29:09;1.95;;;1.15;;
35699;SDS011;21818;51.078;12.108;2023-04-24T00:31:34;2.15;;;0.82;;
35699;SDS011;21818;51.078;12.108;2023-04-24T00:34:03;1.27;;;0.70;;
35699;SDS011;21818;51.078;12.108;2023-04-24T00:36:29;1.95;;;0.90;;
35699;SDS011;21818;51.078;12.108;2023-04-24T00:38:56;1.05;;;0.50;;
35699;SDS011;21818;51.078;12.108;2023-04-24T00:41:21;2.30;;;0.55;;
35699;SDS011;21818;51.078;12.108;2023-04-24T00:43:49;2.80;;;0.40;;
35699;SDS011;21818;51.078;12.108;2023-04-24T00:46:15;1.48;;;0.55;;
35699;SDS011;21818;51.078;12.108;2023-04-24T00:48:41;2.08;;;0.60;;
35699;SDS011;21818;51.078;12.108;2023-04-24T00:51:07;2.55;;;0.68;;
35699;SDS011;21818;51.078;12.108;2023-04-24T00:53:33;2.67;;;0.68;;
35699;SDS011;21818;51.078;12.108;2023-04-24T00:55:59;3.88;;;0.60;;
35699;SDS011;21818;51.078;12.108;2023-04-24T00:58:25;1.27;;;0.45;;
35699;SDS011;21818;51.078;12.108;2023-04-24T01:00:51;1.42;;;0.85;;
35699;SDS011;21818;51.078;12.108;2023-04-24T01:03:22;1.27;;;0.50;;
35699;SDS011;21818;51.078;12.108;2023-04-24T01:05:51;1.33;;;0.60;;
35699;SDS011;21818;51.078;12.108;2023-04-24T01:08:17;1.33;;;0.57;;
35699;SDS011;21818;51.078;12.108;2023-04-24T01:10:43;1.13;;;0.43;;
35699;SDS011;21818;51.078;12.108;2023-04-24T01:13:11;1.30;;;0.50;;
35699;SDS011;21818;51.078;12.108;2023-04-24T01:15:36;1.38;;;0.32;;
35699;SDS011;21818;51.078;12.108;2023-04-24T01:18:02;0.90;;;0.60;;
35699;SDS011;21818;51.078;12.108;2023-04-24T01:20:28;2.65;;;0.60;;
35699;SDS011;21818;51.078;12.108;2023-04-24T01:22:55;0.47;;;0.45;;
35699;SDS011;21818;51.078;12.108;2023-04-24T01:25:21;1.90;;;0.52;;
35699;SDS011;21818;51.078;12.108;2023-04-24T01:27:47;0.93;;;0.60;;
35699;SDS011;21818;51.078;12.108;2023-04-24T01:30:12;0.88;;;0.60;;
35699;SDS011;21818;51.078;12.108;2023-04-24T01:32:38;0.75;;;0.40;;
35699;SDS011;21818;51.078;12.108;2023-04-24T01:35:06;2.13;;;0.50;;
35699;SDS011;21818;51.078;12.108;2023-04-24T01:37:32;2.25;;;0.60;;
35699;SDS011;21818;51.078;12.108;2023-04-24T01:39:58;0.98;;;0.50;;
35699;SDS011;21818;51.078;12.108;2023-04-24T01:42:23;0.90;;;0.47;;
35699;SDS011;21818;51.078;12.108;2023-04-24T01:44:49;2.88;;;0.60;;
35699;SDS011;21818;51.078;12.108;2023-04-24T01:47:16;3.50;;;0.50;;
35699;SDS011;21818;51.078;12.108;2023-04-24T01:49:42;1.00;;;0.40;;
35699;SDS011;21818;51.078;12.108;2023-04-24T01:52:07;2.15;;;0.68;;
35699;SDS011;21818;51.078;12.108;2023-04-24T01:54:33;0.93;;;0.55;;
35699;SDS011;21818;51.078;12.108;2023-04-24T01:56:58;0.90;;;0.30;;
35699;SDS011;21818;51.078;12.108;2023-04-24T01:59:26;1.02;;;0.32;;
35699;SDS011;21818;51.078;12.108;2023-04-24T02:01:53;0.60;;;0.40;;
35699;SDS011;21818;51.078;12.108;2023-04-24T02:04:19;2.53;;;0.47;;
35699;SDS011;21818;51.078;12.108;2023-04-24T02:06:44;1.05;;;0.60;;
35699;SDS011;21818;51.078;12.108;2023-04-24T02:09:10;1.15;;;0.50;;
35699;SDS011;21818;51.078;12.108;2023-04-24T02:11:36;0.55;;;0.35;;
35699;SDS011;21818;51.078;12.108;2023-04-24T02:14:01;0.88;;;0.45;;
35699;SDS011;21818;51.078;12.108;2023-04-24T02:16:27;1.30;;;0.55;;
35699;SDS011;21818;51.078;12.108;2023-04-24T02:18:57;1.35;;;0.50;;
35699;SDS011;21818;51.078;12.108;2023-04-24T02:21:22;0.85;;;0.40;;
35699;SDS011;21818;51.078;12.108;2023-04-24T02:23:48;1.42;;;0.80;;
35699;SDS011;21818;51.078;12.108;2023-04-24T02:26:13;1.52;;;0.52;;
35699;SDS011;21818;51.078;12.108;2023-04-24T02:28:40;0.73;;;0.40;;
35699;SDS011;21818;51.078;12.108;2023-04-24T02:31:05;0.95;;;0.30;;
35699;SDS011;21818;51.078;12.108;2023-04-24T02:33:31;1.35;;;0.60;;
35699;SDS011;21818;51.078;12.108;2023-04-24T02:35:57;0.70;;;0.40;;
35699;SDS011;21818;51.078;12.108;2023-04-24T02:38:22;4.85;;;1.05;;
35699;SDS011;21818;51.078;12.108;2023-04-24T02:40:48;0.50;;;0.45;;
35699;SDS011;21818;51.078;12.108;2023-04-24T02:43:13;1.95;;;0.68;;
35699;SDS011;21818;51.078;12.108;2023-04-24T02:45:39;0.73;;;0.40;;
35699;SDS011;21818;51.078;12.108;2023-04-24T02:48:04;1.05;;;0.55;;
35699;SDS011;21818;51.078;12.108;2023-04-24T02:50:30;2.40;;;0.50;;
35699;SDS011;21818;51.078;12.108;2023-04-24T02:52:55;1.48;;;0.40;;
35699;SDS011;21818;51.078;12.108;2023-04-24T02:55:21;0.73;;;0.50;;
35699;SDS011;21818;51.078;12.108;2023-04-24T02:57:46;1.38;;;0.55;;
35699;SDS011;21818;51.078;12.108;2023-04-24T03:00:12;1.20;;;0.50;;
35699;SDS011;21818;51.078;12.108;2023-04-24T03:02:38;2.70;;;0.50;;
35699;SDS011;21818;51.078;12.108;2023-04-24T03:05:04;0.30;;;0.30;;
35699;SDS011;21818;51.078;12.108;2023-04-24T03:07:29;1.17;;;0.40;;
35699;SDS011;21818;51.078;12.108;2023-04-24T03:09:56;0.60;;;0.38;;
35699;SDS011;21818;51.078;12.108;2023-04-24T03:12:23;1.20;;;0.47;;
35699;SDS011;21818;51.078;12.108;2023-04-24T03:14:48;1.33;;;0.40;;
35699;SDS011;21818;51.078;12.108;2023-04-24T03:17:14;1.23;;;0.40;;
35699;SDS011;21818;51.078;12.108;2023-04-24T03:19:40;1.13;;;0.47;;
35699;SDS011;21818;51.078;12.108;2023-04-24T03:22:05;1.17;;;0.60;;
35699;SDS011;21818;51.078;12.108;2023-04-24T03:24:31;0.25;;;0.25;;
35699;SDS011;21818;51.078;12.108;2023-04-24T03:26:57;1.75;;;0.50;;
35699;SDS011;21818;51.078;12.108;2023-04-24T03:29:22;0.57;;;0.50;;
35699;SDS011;21818;51.078;12.108;2023-04-24T03:31:48;1.38;;;0.43;;
35699;SDS011;21818;51.078;12.108;2023-04-24T03:34:13;0.82;;;0.40;;
35699;SDS011;21818;51.078;12.108;2023-04-24T03:36:39;1.85;;;0.40;;
35699;SDS011;21818;51.078;12.108;2023-04-24T03:39:04;0.68;;;0.32;;
35699;SDS011;21818;51.078;12.108;2023-04-24T03:41:30;0.95;;;0.50;;
35699;SDS011;21818;51.078;12.108;2023-04-24T03:43:56;1.95;;;0.30;;
35699;SDS011;21818;51.078;12.108;2023-04-24T03:46:21;0.70;;;0.50;;
35699;SDS011;21818;51.078;12.108;2023-04-24T03:48:47;1.90;;;0.40;;
35699;SDS011;21818;51.078;12.108;2023-04-24T03:51:12;2.45;;;0.60;;
35699;SDS011;21818;51.078;12.108;2023-04-24T03:53:38;0.77;;;0.30;;
35699;SDS011;21818;51.078;12.108;2023-04-24T03:56:03;1.65;;;0.60;;
35699;SDS011;21818;51.078;12.108;2023-04-24T03:58:29;1.52;;;0.43;;
35699;SDS011;21818;51.078;12.108;2023-04-24T04:00:55;0.43;;;0.20;;
35699;SDS011;21818;51.078;12.108;2023-04-24T04:03:23;0.50;;;0.40;;
35699;SDS011;21818;51.078;12.108;2023-04-24T04:05:48;0.60;;;0.30;;
35699;SDS011;21818;51.078;12.108;2023-04-24T04:08:14;1.00;;;0.40;;
35699;SDS011;21818;51.078;12.108;2023-04-24T04:10:40;0.85;;;0.40;;
35699;SDS011;21818;51.078;12.108;2023-04-24T04:13:05;3.25;;;0.40;;
35699;SDS011;21818;51.078;12.108;2023-04-24T04:15:31;2.25;;;0.55;;
35699;SDS011;21818;51.078;12.108;2023-04-24T04:17:57;2.08;;;0.50;;
35699;SDS011;21818;51.078;12.108;2023-04-24T04:20:22;1.30;;;0.50;;
35699;SDS011;21818;51.078;12.108;2023-04-24T04:22:48;0.68;;;0.38;;
35699;SDS011;21818;51.078;12.108;2023-04-24T04:25:13;2.72;;;0.60;;
35699;SDS011;21818;51.078;12.108;2023-04-24T04:27:39;2.08;;;0.50;;
35699;SDS011;21818;51.078;12.108;2023-04-24T04:30:06;0.90;;;0.40;;
35699;SDS011;21818;51.078;12.108;2023-04-24T04:32:33;0.77;;;0.60;;
35699;SDS011;21818;51.078;12.108;2023-04-24T04:35:00;3.00;;;0.57;;
35699;SDS011;21818;51.078;12.108;2023-04-24T04:37:28;2.13;;;0.68;;
35699;SDS011;21818;51.078;12.108;2023-04-24T04:40:01;2.88;;;0.40;;
35699;SDS011;21818;51.078;12.108;2023-04-24T04:42:31;2.28;;;0.52;;
35699;SDS011;21818;51.078;12.108;2023-04-24T04:45:00;6.38;;;0.68;;
35699;SDS011;21818;51.078;12.108;2023-04-24T04:47:27;2.05;;;0.30;;
35699;SDS011;21818;51.078;12.108;2023-04-24T04:49:53;9.05;;;2.35;;
35699;SDS011;21818;51.078;12.108;2023-04-24T04:52:19;0.80;;;0.63;;
35699;SDS011;21818;51.078;12.108;2023-04-24T04:54:45;3.45;;;0.70;;
35699;SDS011;21818;51.078;12.108;2023-04-24T04:57:11;0.47;;;0.35;;
35699;SDS011;21818;51.078;12.108;2023-04-24T04:59:37;3.10;;;0.55;;
35699;SDS011;21818;51.078;12.108;2023-04-24T05:02:03;1.38;;;0.50;;
35699;SDS011;21818;51.078;12.108;2023-04-24T05:04:28;1.30;;;0.60;;
35699;SDS011;21818;51.078;12.108;2023-04-24T05:06:55;2.47;;;0.73;;
35699;SDS011;21818;51.078;12.108;2023-04-24T05:09:21;14.75;;;3.17;;
35699;SDS011;21818;51.078;12.108;2023-04-24T05:11:46;10.85;;;3.42;;
35699;SDS011;21818;51.078;12.108;2023-04-24T05:14:12;12.73;;;2.30;;
35699;SDS011;21818;51.078;12.108;2023-04-24T05:16:38;12.90;;;2.20;;
35699;SDS011;21818;51.078;12.108;2023-04-24T05:19:04;8.23;;;2.03;;
35699;SDS011;21818;51.078;12.108;2023-04-24T05:21:30;9.23;;;2.17;;
35699;SDS011;21818;51.078;12.108;2023-04-24T05:23:56;7.00;;;1.90;;
35699;SDS011;21818;51.078;12.108;2023-04-24T05:26:21;7.10;;;2.00;;
35699;SDS011;21818;51.078;12.108;2023-04-24T05:28:47;4.30;;;1.30;;
35699;SDS011;21818;51.078;12.108;2023-04-24T05:31:13;7.72;;;2.00;;
35699;SDS011;21818;51.078;12.108;2023-04-24T05:33:39;7.38;;;1.55;;
35699;SDS011;21818;51.078;12.108;2023-04-24T05:36:05;5.07;;;1.40;;
35699;SDS011;21818;51.078;12.108;2023-04-24T05:38:31;8.73;;;1.50;;
35699;SDS011;21818;51.078;12.108;2023-04-24T05:40:57;7.00;;;1.42;;
35699;SDS011;21818;51.078;12.108;2023-04-24T05:43:22;6.38;;;1.50;;
35699;SDS011;21818;51.078;12.108;2023-04-24T05:45:48;3.15;;;1.60;;
35699;SDS011;21818;51.078;12.108;2023-04-24T05:48:14;3.70;;;1.08;;
35699;SDS011;21818;51.078;12.108;2023-04-24T05:50:39;4.35;;;1.10;;
35699;SDS011;21818;51.078;12.108;2023-04-24T05:53:05;5.72;;;0.98;;
35699;SDS011;21818;51.078;12.108;2023-04-24T05:55:32;4.55;;;1.02;;
35699;SDS011;21818;51.078;12.108;2023-04-24T05:57:57;3.95;;;1.08;;
35699;SDS011;21818;51.078;12.108;2023-04-24T06:00:23;4.45;;;1.05;;
35699;SDS011;21818;51.078;12.108;2023-04-24T06:02:49;4.85;;;1.17;;
35699;SDS011;21818;51.078;12.108;2023-04-24T06:05:15;3.03;;;1.00;;
35699;SDS011;21818;51.078;12.108;2023-04-24T06:07:41;2.22;;;0.82;;
35699;SDS011;21818;51.078;12.108;2023-04-24T06:10:06;2.28;;;0.90;;
35699;SDS011;21818;51.078;12.108;2023-04-24T06:12:32;3.80;;;0.47;;
35699;SDS011;21818;51.078;12.108;2023-04-24T06:14:58;2.85;;;0.60;;
35699;SDS011;21818;51.078;12.108;2023-04-24T06:17:23;4.82;;;1.50;;
35699;SDS011;21818;51.078;12.108;2023-04-24T06:19:49;10.57;;;2.00;;
35699;SDS011;21818;51.078;12.108;2023-04-24T06:22:14;17.50;;;2.22;;
35699;SDS011;21818;51.078;12.108;2023-04-24T06:24:40;7.05;;;1.77;;
35699;SDS011;21818;51.078;12.108;2023-04-24T06:27:06;11.95;;;1.98;;
35699;SDS011;21818;51.078;12.108;2023-04-24T06:29:32;4.00;;;1.50;;
35699;SDS011;21818;51.078;12.108;2023-04-24T06:31:58;7.07;;;1.20;;
35699;SDS011;21818;51.078;12.108;2023-04-24T06:34:24;6.20;;;1.83;;
35699;SDS011;21818;51.078;12.108;2023-04-24T06:36:49;11.48;;;1.85;;
35699;SDS011;21818;51.078;12.108;2023-04-24T06:39:15;7.85;;;1.40;;
35699;SDS011;21818;51.078;12.108;2023-04-24T06:41:41;7.72;;;1.70;;
35699;SDS011;21818;51.078;12.108;2023-04-24T06:44:06;7.28;;;1.75;;
35699;SDS011;21818;51.078;12.108;2023-04-24T06:46:32;7.05;;;1.40;;
35699;SDS011;21818;51.078;12.108;2023-04-24T06:48:58;8.00;;;1.80;;
35699;SDS011;21818;51.078;12.108;2023-04-24T06:51:23;9.02;;;2.65;;
35699;SDS011;21818;51.078;12.108;2023-04-24T06:53:51;6.00;;;0.93;;
35699;SDS011;21818;51.078;12.108;2023-04-24T06:56:17;4.80;;;1.10;;
35699;SDS011;21818;51.078;12.108;2023-04-24T06:58:42;3.78;;;1.02;;
35699;SDS011;21818;51.078;12.108;2023-04-24T07:01:08;4.63;;;1.10;;
35699;SDS011;21818;51.078;12.108;2023-04-24T07:03:34;5.78;;;1.30;;
35699;SDS011;21818;51.078;12.108;2023-04-24T07:06:00;9.38;;;1.42;;
35699;SDS011;21818;51.078;12.108;2023-04-24T07:08:26;7.20;;;1.00;;
35699;SDS011;21818;51.078;12.108;2023-04-24T07:10:51;4.10;;;1.13;;
35699;SDS011;21818;51.078;12.108;2023-04-24T07:13:17;2.00;;;0.80;;
35699;SDS011;21818;51.078;12.108;2023-04-24T07:15:42;3.30;;;1.30;;
35699;SDS011;21818;51.078;12.108;2023-04-24T07:18:08;4.15;;;1.17;;
35699;SDS011;21818;51.078;12.108;2023-04-24T07:20:34;3.13;;;0.82;;
35699;SDS011;21818;51.078;12.108;2023-04-24T07:23:00;1.80;;;0.77;;
35699;SDS011;21818;51.078;12.108;2023-04-24T07:25:25;10.52;;;2.08;;
35699;SDS011;21818;51.078;12.108;2023-04-24T07:27:51;3.72;;;0.90;;
35699;SDS011;21818;51.078;12.108;2023-04-24T07:30:17;3.28;;;0.80;;
35699;SDS011;21818;51.078;12.108;2023-04-24T07:32:43;2.78;;;0.70;;
35699;SDS011;21818;51.078;12.108;2023-04-24T07:35:09;3.92;;;0.73;;
35699;SDS011;21818;51.078;12.108;2023-04-24T07:37:35;3.00;;;0.70;;
35699;SDS011;21818;51.078;12.108;2023-04-24T07:40:00;0.98;;;0.50;;
35699;SDS011;21818;51.078;12.108;2023-04-24T07:42:26;2.05;;;0.57;;
35699;SDS011;21818;51.078;12.108;2023-04-24T07:44:53;3.33;;;0.70;;
35699;SDS011;21818;51.078;12.108;2023-04-24T07:47:18;3.15;;;1.00;;
35699;SDS011;21818;51.078;12.108;2023-04-24T07:49:44;5.45;;;0.88;;
35699;SDS011;21818;51.078;12.108;2023-04-24T07:52:10;2.78;;;0.50;;
35699;SDS011;21818;51.078;12.108;2023-04-24T07:54:35;1.75;;;0.73;;
35699;SDS011;21818;51.078;12.108;2023-04-24T07:57:02;2.35;;;0.68;;
35699;SDS011;21818;51.078;12.108;2023-04-24T07:59:28;3.97;;;0.70;;
35699;SDS011;21818;51.078;12.108;2023-04-24T08:01:53;0.95;;;0.52;;
35699;SDS011;21818;51.078;12.108;2023-04-24T08:04:19;4.50;;;0.73;;
35699;SDS011;21818;51.078;12.108;2023-04-24T08:06:46;2.65;;;0.47;;
35699;SDS011;21818;51.078;12.108;2023-04-24T08:09:12;4.70;;;0.60;;
35699;SDS011;21818;51.078;12.108;2023-04-24T08:11:38;1.25;;;0.40;;
35699;SDS011;21818;51.078;12.108;2023-04-24T08:14:03;1.85;;;0.50;;
35699;SDS011;21818;51.078;12.108;2023-04-24T08:16:29;2.58;;;0.60;;
35699;SDS011;21818;51.078;12.108;2023-04-24T08:18:54;0.80;;;0.38;;
35699;SDS011;21818;51.078;12.108;2023-04-24T08:21:20;0.35;;;0.20;;
35699;SDS011;21818;51.078;12.108;2023-04-24T08:23:46;2.47;;;0.68;;
35699;SDS011;21818;51.078;12.108;2023-04-24T08:26:12;2.25;;;0.60;;
35699;SDS011;21818;51.078;12.108;2023-04-24T08:28:38;1.08;;;0.30;;
35699;SDS011;21818;51.078;12.108;2023-04-24T08:31:03;0.82;;;0.30;;
35699;SDS011;21818;51.078;12.108;2023-04-24T08:33:29;5.13;;;0.52;;
35699;SDS011;21818;51.078;12.108;2023-04-24T08:35:59;3.63;;;0.50;;
35699;SDS011;21818;51.078;12.108;2023-04-24T08:38:26;4.55;;;0.73;;
35699;SDS011;21818;51.078;12.108;2023-04-24T08:40:52;1.50;;;0.40;;
35699;SDS011;21818;51.078;12.108;2023-04-24T08:43:18;6.18;;;0.60;;
35699;SDS011;21818;51.078;12.108;2023-04-24T08:45:46;8.13;;;0.70;;
35699;SDS011;21818;51.078;12.108;2023-04-24T08:48:12;2.65;;;0.45;;
35699;SDS011;21818;51.078;12.108;2023-04-24T08:50:39;2.25;;;0.32;;
35699;SDS011;21818;51.078;12.108;2023-04-24T08:53:07;1.02;;;0.35;;
35699;SDS011;21818;51.078;12.108;2023-04-24T08:55:34;1.02;;;0.40;;
35699;SDS011;21818;51.078;12.108;2023-04-24T08:58:00;0.70;;;0.30;;
35699;SDS011;21818;51.078;12.108;2023-04-24T09:00:27;0.55;;;0.30;;
35699;SDS011;21818;51.078;12.108;2023-04-24T09:02:53;1.38;;;0.32;;
35699;SDS011;21818;51.078;12.108;2023-04-24T09:05:20;1.13;;;0.73;;
35699;SDS011;21818;51.078;12.108;2023-04-24T09:07:52;0.50;;;0.20;;
35699;SDS011;21818;51.078;12.108;2023-04-24T09:10:19;0.73;;;0.40;;
35699;SDS011;21818;51.078;12.108;2023-04-24T09:12:50;1.27;;;0.30;;
35699;SDS011;21818;51.078;12.108;2023-04-24T09:15:16;0.50;;;0.30;;
35699;SDS011;21818;51.078;12.108;2023-04-24T09:17:43;0.50;;;0.40;;
35699;SDS011;21818;51.078;12.108;2023-04-24T09:20:09;1.00;;;0.45;;
35699;SDS011;21818;51.078;12.108;2023-04-24T09:22:35;0.68;;;0.20;;
35699;SDS011;21818;51.078;12.108;2023-04-24T09:25:02;1.73;;;0.50;;
35699;SDS011;21818;51.078;12.108;2023-04-24T09:27:30;0.20;;;0.20;;
35699;SDS011;21818;51.078;12.108;2023-04-24T09:29:56;0.95;;;0.57;;
35699;SDS011;21818;51.078;12.108;2023-04-24T09:32:23;2.17;;;0.30;;
35699;SDS011;21818;51.078;12.108;2023-04-24T09:35:13;0.93;;;0.38;;
35699;SDS011;21818;51.078;12.108;2023-04-24T09:37:45;1.95;;;0.30;;
35699;SDS011;21818;51.078;12.108;2023-04-24T09:42:39;6.10;;;0.90;;
35699;SDS011;21818;51.078;12.108;2023-04-24T09:45:08;0.70;;;0.40;;
35699;SDS011;21818;51.078;12.108;2023-04-24T09:47:37;0.82;;;0.35;;
35699;SDS011;21818;51.078;12.108;2023-04-24T09:50:12;0.65;;;0.30;;
35699;SDS011;21818;51.078;12.108;2023-04-24T09:52:45;1.13;;;0.50;;
35699;SDS011;21818;51.078;12.108;2023-04-24T09:55:20;2.15;;;0.50;;
35699;SDS011;21818;51.078;12.108;2023-04-24T09:57:47;1.00;;;0.30;;
35699;SDS011;21818;51.078;12.108;2023-04-24T10:00:25;2.67;;;1.05;;
35699;SDS011;21818;51.078;12.108;2023-04-24T10:02:59;0.30;;;0.25;;
35699;SDS011;21818;51.078;12.108;2023-04-24T10:05:32;0.95;;;0.30;;
35699;SDS011;21818;51.078;12.108;2023-04-24T10:08:01;1.42;;;0.60;;
35699;SDS011;21818;51.078;12.108;2023-04-24T10:10:41;1.27;;;0.40;;
35699;SDS011;21818;51.078;12.108;2023-04-24T10:13:12;1.17;;;0.32;;
35699;SDS011;21818;51.078;12.108;2023-04-24T10:15:40;3.47;;;0.22;;
35699;SDS011;21818;51.078;12.108;2023-04-24T10:18:07;0.50;;;0.30;;
35699;SDS011;21818;51.078;12.108;2023-04-24T10:20:34;1.45;;;0.40;;
35699;SDS011;21818;51.078;12.108;2023-04-24T10:23:01;0.50;;;0.40;;
35699;SDS011;21818;51.078;12.108;2023-04-24T10:25:28;0.90;;;0.20;;
35699;SDS011;21818;51.078;12.108;2023-04-24T10:27:55;2.38;;;0.50;;
35699;SDS011;21818;51.078;12.108;2023-04-24T10:30:24;1.85;;;0.47;;
35699;SDS011;21818;51.078;12.108;2023-04-24T10:32:50;2.63;;;0.70;;
35699;SDS011;21818;51.078;12.108;2023-04-24T10:35:16;2.65;;;0.50;;
35699;SDS011;21818;51.078;12.108;2023-04-24T10:37:48;2.72;;;0.50;;
35699;SDS011;21818;51.078;12.108;2023-04-24T10:40:17;1.00;;;0.30;;
35699;SDS011;21818;51.078;12.108;2023-04-24T10:42:46;1.95;;;0.50;;
35699;SDS011;21818;51.078;12.108;2023-04-24T10:45:17;0.60;;;0.30;;
35699;SDS011;21818;51.078;12.108;2023-04-24T10:47:56;3.70;;;0.43;;
35699;SDS011;21818;51.078;12.108;2023-04-24T10:50:44;0.70;;;0.60;;
35699;SDS011;21818;51.078;12.108;2023-04-24T10:53:12;0.70;;;0.30;;
35699;SDS011;21818;51.078;12.108;2023-04-24T10:58:11;0.65;;;0.35;;
35699;SDS011;21818;51.078;12.108;2023-04-24T11:00:40;1.00;;;0.40;;
35699;SDS011;21818;51.078;12.108;2023-04-24T11:03:07;0.93;;;0.38;;
35699;SDS011;21818;51.078;12.108;2023-04-24T11:05:57;0.57;;;0.30;;
35699;SDS011;21818;51.078;12.108;2023-04-24T11:08:27;1.40;;;0.50;;
35699;SDS011;21818;51.078;12.108;2023-04-24T11:11:01;1.20;;;0.30;;
35699;SDS011;21818;51.078;12.108;2023-04-24T11:16:25;0.65;;;0.45;;
35699;SDS011;21818;51.078;12.108;2023-04-24T11:21:40;1.08;;;0.40;;
35699;SDS011;21818;51.078;12.108;2023-04-24T11:29:39;1.50;;;0.60;;
35699;SDS011;21818;51.078;12.108;2023-04-24T11:33:05;1.02;;;0.47;;
35699;SDS011;21818;51.078;12.108;2023-04-24T11:35:07;0.60;;;0.40;;
35699;SDS011;21818;51.078;12.108;2023-04-24T11:37:43;1.38;;;0.47;;
35699;SDS011;21818;51.078;12.108;2023-04-24T11:40:12;2.00;;;0.50;;
35699;SDS011;21818;51.078;12.108;2023-04-24T11:42:40;0.85;;;0.50;;
35699;SDS011;21818;51.078;12.108;2023-04-24T11:45:10;1.00;;;0.30;;
35699;SDS011;21818;51.078;12.108;2023-04-24T11:47:38;1.27;;;0.60;;
35699;SDS011;21818;51.078;12.108;2023-04-24T11:50:05;0.90;;;0.50;;
35699;SDS011;21818;51.078;12.108;2023-04-24T11:52:42;0.63;;;0.52;;
35699;SDS011;21818;51.078;12.108;2023-04-24T11:57:44;1.83;;;0.50;;
35699;SDS011;21818;51.078;12.108;2023-04-24T12:00:17;0.60;;;0.50;;
35699;SDS011;21818;51.078;12.108;2023-04-24T12:02:44;2.70;;;0.52;;
35699;SDS011;21818;51.078;12.108;2023-04-24T12:05:31;1.10;;;0.40;;
35699;SDS011;21818;51.078;12.108;2023-04-24T12:07:59;0.55;;;0.30;;
35699;SDS011;21818;51.078;12.108;2023-04-24T12:10:25;2.10;;;0.47;;
35699;SDS011;21818;51.078;12.108;2023-04-24T12:12:53;1.33;;;0.40;;
35699;SDS011;21818;51.078;12.108;2023-04-24T12:15:21;0.63;;;0.40;;
35699;SDS011;21818;51.078;12.108;2023-04-24T12:17:47;1.05;;;0.40;;
35699;SDS011;21818;51.078;12.108;2023-04-24T12:20:15;0.98;;;0.60;;
35699;SDS011;21818;51.078;12.108;2023-04-24T12:22:48;0.30;;;0.30;;
35699;SDS011;21818;51.078;12.108;2023-04-24T12:25:19;2.03;;;0.95;;
35699;SDS011;21818;51.078;12.108;2023-04-24T12:27:47;0.55;;;0.38;;
35699;SDS011;21818;51.078;12.108;2023-04-24T12:30:39;1.88;;;0.45;;
35699;SDS011;21818;51.078;12.108;2023-04-24T12:33:16;0.50;;;0.40;;
35699;SDS011;21818;51.078;12.108;2023-04-24T12:35:43;1.98;;;0.60;;
35699;SDS011;21818;51.078;12.108;2023-04-24T12:38:13;0.50;;;0.30;;
35699;SDS011;21818;51.078;12.108;2023-04-24T12:40:40;0.95;;;0.32;;
35699;SDS011;21818;51.078;12.108;2023-04-24T12:43:15;0.68;;;0.50;;
35699;SDS011;21818;51.078;12.108;2023-04-24T12:45:42;0.70;;;0.43;;
35699;SDS011;21818;51.078;12.108;2023-04-24T12:48:07;2.03;;;0.50;;
35699;SDS011;21818;51.078;12.108;2023-04-24T12:50:33;0.52;;;0.40;;
35699;SDS011;21818;51.078;12.108;2023-04-24T12:52:59;0.30;;;0.30;;
35699;SDS011;21818;51.078;12.108;2023-04-24T12:55:25;3.08;;;0.60;;
35699;SDS011;21818;51.078;12.108;2023-04-24T12:57:50;0.80;;;0.40;;
35699;SDS011;21818;51.078;12.108;2023-04-24T13:00:17;0.60;;;0.50;;
35699;SDS011;21818;51.078;12.108;2023-04-24T13:02:42;2.47;;;0.57;;
35699;SDS011;21818;51.078;12.108;2023-04-24T13:05:08;0.85;;;0.38;;
35699;SDS011;21818;51.078;12.108;2023-04-24T13:07:34;0.68;;;0.50;;
35699;SDS011;21818;51.078;12.108;2023-04-24T13:09:59;0.50;;;0.50;;
35699;SDS011;21818;51.078;12.108;2023-04-24T13:12:25;0.20;;;0.20;;
35699;SDS011;21818;51.078;12.108;2023-04-24T13:14:51;1.13;;;0.50;;
35699;SDS011;21818;51.078;12.108;2023-04-24T13:17:17;0.40;;;0.30;;
35699;SDS011;21818;51.078;12.108;2023-04-24T13:19:43;1.65;;;0.47;;
35699;SDS011;21818;51.078;12.108;2023-04-24T13:22:10;1.95;;;0.47;;
35699;SDS011;21818;51.078;12.108;2023-04-24T13:24:37;0.90;;;0.30;;
35699;SDS011;21818;51.078;12.108;2023-04-24T13:27:04;0.50;;;0.40;;
35699;SDS011;21818;51.078;12.108;2023-04-24T13:29:30;0.68;;;0.30;;
35699;SDS011;21818;51.078;12.108;2023-04-24T13:31:55;0.63;;;0.50;;
35699;SDS011;21818;51.078;12.108;2023-04-24T13:34:22;0.85;;;0.40;;
35699;SDS011;21818;51.078;12.108;2023-04-24T13:36:54;1.33;;;0.55;;
35699;SDS011;21818;51.078;12.108;2023-04-24T13:39:24;0.75;;;0.63;;
35699;SDS011;21818;51.078;12.108;2023-04-24T13:41:50;0.98;;;0.55;;
35699;SDS011;21818;51.078;12.108;2023-04-24T13:44:17;0.40;;;0.30;;
35699;SDS011;21818;51.078;12.108;2023-04-24T13:46:45;0.40;;;0.40;;
35699;SDS011;21818;51.078;12.108;2023-04-24T13:49:12;0.47;;;0.38;;
35699;SDS011;21818;51.078;12.108;2023-04-24T13:51:38;0.93;;;0.40;;
35699;SDS011;21818;51.078;12.108;2023-04-24T13:54:05;0.95;;;0.30;;
35699;SDS011;21818;51.078;12.108;2023-04-24T13:56:31;0.95;;;0.40;;
35699;SDS011;21818;51.078;12.108;2023-04-24T13:58:56;0.90;;;0.40;;
35699;SDS011;21818;51.078;12.108;2023-04-24T14:01:22;1.05;;;0.30;;
35699;SDS011;21818;51.078;12.108;2023-04-24T14:03:50;0.38;;;0.32;;
35699;SDS011;21818;51.078;12.108;2023-04-24T14:06:16;2.20;;;0.30;;
35699;SDS011;21818;51.078;12.108;2023-04-24T14:08:42;1.67;;;0.20;;
35699;SDS011;21818;51.078;12.108;2023-04-24T14:11:08;3.63;;;0.40;;
35699;SDS011;21818;51.078;12.108;2023-04-24T14:13:34;1.15;;;0.40;;
35699;SDS011;21818;51.078;12.108;2023-04-24T14:16:01;1.08;;;0.40;;
35699;SDS011;21818;51.078;12.108;2023-04-24T14:18:26;0.75;;;0.45;;
35699;SDS011;21818;51.078;12.108;2023-04-24T14:20:52;3.88;;;0.52;;
35699;SDS011;21818;51.078;12.108;2023-04-24T14:23:18;0.40;;;0.40;;
35699;SDS011;21818;51.078;12.108;2023-04-24T14:25:43;2.67;;;0.63;;
35699;SDS011;21818;51.078;12.108;2023-04-24T14:28:09;4.20;;;0.60;;
35699;SDS011;21818;51.078;12.108;2023-04-24T14:30:35;2.50;;;0.43;;
35699;SDS011;21818;51.078;12.108;2023-04-24T14:33:02;1.13;;;0.57;;
35699;SDS011;21818;51.078;12.108;2023-04-24T14:35:28;1.58;;;0.60;;
35699;SDS011;21818;51.078;12.108;2023-04-24T14:37:56;0.60;;;0.40;;
35699;SDS011;21818;51.078;12.108;2023-04-24T14:40:22;0.88;;;0.40;;
35699;SDS011;21818;51.078;12.108;2023-04-24T14:42:47;0.82;;;0.55;;
35699;SDS011;21818;51.078;12.108;2023-04-24T14:45:13;0.98;;;0.40;;
35699;SDS011;21818;51.078;12.108;2023-04-24T14:47:38;1.60;;;0.30;;
35699;SDS011;21818;51.078;12.108;2023-04-24T14:50:04;0.70;;;0.60;;
35699;SDS011;21818;51.078;12.108;2023-04-24T14:52:30;1.20;;;0.50;;